sensor_id;sensor_type;location;lat;lon;timestamp;temperature;humidity
8896;DHT22;4484;48.928;10.066;2022-12-05T00:01:33;1.60;99.90
8896;DHT22;4484;48.928;10.066;2022-12-05T00:04:03;1.60;99.90
8896;DHT22;4484;48.928;10.066;2022-12-05T00:06:32;1.50;99.90
8896;DHT22;4484;48.928;10.066;2022-12-05T00:09:01;1.60;99.90
8896;DHT22;4484;48.928;10.066;2022-12-05T00:11:31;1.60;99.90
8896;DHT22;4484;48.928;10.066;2022-12-05T00:13:59;1.50;99.90
8896;DHT22;4484;48.928;10.066;2022-12-05T00:16:28;1.60;99.90
8896;DHT22;4484;48.928;10.066;2022-12-05T00:18:58;1.60;99.90
8896;DHT22;4484;48.928;10.066;2022-12-05T00:21:29;1.60;99.90
8896;DHT22;4484;48.928;10.066;2022-12-05T00:23:58;1.60;99.90
8896;DHT22;4484;48.928;10.066;2022-12-05T00:26:25;1.60;99.90
8896;DHT22;4484;48.928;10.066;2022-12-05T00:28:53;1.60;99.90
8896;DHT22;4484;48.928;10.066;2022-12-05T00:31:23;1.60;99.90
8896;DHT22;4484;48.928;10.066;2022-12-05T00:33:51;1.60;99.90
8896;DHT22;4484;48.928;10.066;2022-12-05T00:36:25;1.60;99.90
8896;DHT22;4484;48.928;10.066;2022-12-05T00:38:53;1.60;99.90
8896;DHT22;4484;48.928;10.066;2022-12-05T00:41:23;1.60;99.90
8896;DHT22;4484;48.928;10.066;2022-12-05T00:43:51;1.60;99.90
8896;DHT22;4484;48.928;10.066;2022-12-05T00:46:20;1.60;99.90
8896;DHT22;4484;48.928;10.066;2022-12-05T00:48:47;1.60;99.90
8896;DHT22;4484;48.928;10.066;2022-12-05T00:51:17;1.60;99.90
8896;DHT22;4484;48.928;10.066;2022-12-05T00:53:46;1.50;99.90
8896;DHT22;4484;48.928;10.066;2022-12-05T00:56:16;1.50;99.90
8896;DHT22;4484;48.928;10.066;2022-12-05T00:58:43;1.50;99.90
8896;DHT22;4484;48.928;10.066;2022-12-05T01:03:39;1.40;99.90
8896;DHT22;4484;48.928;10.066;2022-12-05T01:06:06;1.50;99.90
8896;DHT22;4484;48.928;10.066;2022-12-05T01:08:34;1.40;99.90
8896;DHT22;4484;48.928;10.066;2022-12-05T01:11:02;1.40;99.90
8896;DHT22;4484;48.928;10.066;2022-12-05T01:13:30;1.40;99.90
8896;DHT22;4484;48.928;10.066;2022-12-05T01:15:57;1.40;99.90
8896;DHT22;4484;48.928;10.066;2022-12-05T01:18:25;1.40;99.90
8896;DHT22;4484;48.928;10.066;2022-12-05T01:20:52;1.40;99.90
8896;DHT22;4484;48.928;10.066;2022-12-05T01:23:21;1.40;99.90
8896;DHT22;4484;48.928;10.066;2022-12-05T01:25:49;1.40;99.90
8896;DHT22;4484;48.928;10.066;2022-12-05T01:28:16;1.30;99.90
8896;DHT22;4484;48.928;10.066;2022-12-05T01:30:46;1.40;99.90
8896;DHT22;4484;48.928;10.066;2022-12-05T01:33:13;1.30;99.90
8896;DHT22;4484;48.928;10.066;2022-12-05T01:35:41;1.30;99.90
8896;DHT22;4484;48.928;10.066;2022-12-05T01:38:10;1.30;99.90
8896;DHT22;4484;48.928;10.066;2022-12-05T01:40:38;1.30;99.90
8896;DHT22;4484;48.928;10.066;2022-12-05T01:43:12;1.30;99.90
8896;DHT22;4484;48.928;10.066;2022-12-05T01:45:42;1.30;99.90
8896;DHT22;4484;48.928;10.066;2022-12-05T01:48:17;1.30;99.90
8896;DHT22;4484;48.928;10.066;2022-12-05T01:50:46;1.30;99.90
8896;DHT22;4484;48.928;10.066;2022-12-05T01:53:15;1.30;99.90
8896;DHT22;4484;48.928;10.066;2022-12-05T01:55:43;1.30;99.90
8896;DHT22;4484;48.928;10.066;2022-12-05T01:58:11;1.20;99.90
8896;DHT22;4484;48.928;10.066;2022-12-05T02:00:40;1.20;99.90
8896;DHT22;4484;48.928;10.066;2022-12-05T02:03:11;1.10;99.90
8896;DHT22;4484;48.928;10.066;2022-12-05T02:05:40;1.10;99.90
8896;DHT22;4484;48.928;10.066;2022-12-05T02:08:09;1.10;99.90
8896;DHT22;4484;48.928;10.066;2022-12-05T02:10:43;1.00;99.90
8896;DHT22;4484;48.928;10.066;2022-12-05T02:16:22;1.00;99.90
8896;DHT22;4484;48.928;10.066;2022-12-05T02:32:54;0.80;99.90
8896;DHT22;4484;48.928;10.066;2022-12-05T02:38:17;0.80;99.90
8896;DHT22;4484;48.928;10.066;2022-12-05T02:46:14;0.80;99.90
8896;DHT22;4484;48.928;10.066;2022-12-05T02:48:44;0.80;99.90
8896;DHT22;4484;48.928;10.066;2022-12-05T02:51:15;0.80;99.90
8896;DHT22;4484;48.928;10.066;2022-12-05T02:53:43;0.80;99.90
8896;DHT22;4484;48.928;10.066;2022-12-05T02:56:11;0.90;99.90
8896;DHT22;4484;48.928;10.066;2022-12-05T02:58:44;0.80;99.90
8896;DHT22;4484;48.928;10.066;2022-12-05T03:01:13;0.90;99.90
8896;DHT22;4484;48.928;10.066;2022-12-05T03:03:41;0.90;99.90
8896;DHT22;4484;48.928;10.066;2022-12-05T03:06:14;0.90;99.90
8896;DHT22;4484;48.928;10.066;2022-12-05T03:08:59;0.90;99.90
8896;DHT22;4484;48.928;10.066;2022-12-05T03:11:37;0.90;99.90
8896;DHT22;4484;48.928;10.066;2022-12-05T03:14:09;0.90;99.90
8896;DHT22;4484;48.928;10.066;2022-12-05T03:16:41;0.90;99.90
8896;DHT22;4484;48.928;10.066;2022-12-05T03:19:13;0.80;99.90
8896;DHT22;4484;48.928;10.066;2022-12-05T03:21:50;0.80;99.90
8896;DHT22;4484;48.928;10.066;2022-12-05T03:24:19;0.80;99.90
8896;DHT22;4484;48.928;10.066;2022-12-05T03:26:57;0.80;99.90
8896;DHT22;4484;48.928;10.066;2022-12-05T03:35:06;0.90;99.90
8896;DHT22;4484;48.928;10.066;2022-12-05T03:37:55;0.90;99.90
8896;DHT22;4484;48.928;10.066;2022-12-05T03:45:55;0.90;99.90
8896;DHT22;4484;48.928;10.066;2022-12-05T03:48:52;1.00;99.90
8896;DHT22;4484;48.928;10.066;2022-12-05T03:51:26;1.00;99.90
8896;DHT22;4484;48.928;10.066;2022-12-05T03:54:05;0.90;99.90
8896;DHT22;4484;48.928;10.066;2022-12-05T03:56:43;1.00;99.90
8896;DHT22;4484;48.928;10.066;2022-12-05T03:59:29;1.00;99.90
8896;DHT22;4484;48.928;10.066;2022-12-05T04:02:06;1.00;99.90
8896;DHT22;4484;48.928;10.066;2022-12-05T04:04:37;1.00;99.90
8896;DHT22;4484;48.928;10.066;2022-12-05T04:07:07;1.00;99.90
8896;DHT22;4484;48.928;10.066;2022-12-05T04:10:15;1.00;99.90
8896;DHT22;4484;48.928;10.066;2022-12-05T04:12:35;1.10;99.90
8896;DHT22;4484;48.928;10.066;2022-12-05T04:15:08;1.10;99.90
8896;DHT22;4484;48.928;10.066;2022-12-05T04:17:51;1.10;99.90
8896;DHT22;4484;48.928;10.066;2022-12-05T04:23:11;1.10;99.90
8896;DHT22;4484;48.928;10.066;2022-12-05T04:26:10;1.10;99.90
8896;DHT22;4484;48.928;10.066;2022-12-05T04:31:22;1.20;99.90
8896;DHT22;4484;48.928;10.066;2022-12-05T04:34:02;1.20;99.90
8896;DHT22;4484;48.928;10.066;2022-12-05T04:36:42;1.20;99.90
8896;DHT22;4484;48.928;10.066;2022-12-05T04:39:19;1.20;99.90
8896;DHT22;4484;48.928;10.066;2022-12-05T04:41:59;1.20;99.90
8896;DHT22;4484;48.928;10.066;2022-12-05T04:44:44;1.20;99.90
8896;DHT22;4484;48.928;10.066;2022-12-05T04:47:14;1.20;99.90
8896;DHT22;4484;48.928;10.066;2022-12-05T04:49:43;1.30;99.90
8896;DHT22;4484;48.928;10.066;2022-12-05T04:52:19;1.30;99.90
8896;DHT22;4484;48.928;10.066;2022-12-05T04:55:23;1.30;99.90
8896;DHT22;4484;48.928;10.066;2022-12-05T04:58:13;1.30;99.90
8896;DHT22;4484;48.928;10.066;2022-12-05T05:01:02;1.30;99.90
8896;DHT22;4484;48.928;10.066;2022-12-05T05:03:42;1.30;99.90
8896;DHT22;4484;48.928;10.066;2022-12-05T05:06:12;1.30;99.90
8896;DHT22;4484;48.928;10.066;2022-12-05T05:08:50;1.30;99.90
8896;DHT22;4484;48.928;10.066;2022-12-05T05:11:19;1.30;99.90
8896;DHT22;4484;48.928;10.066;2022-12-05T05:13:47;1.30;99.90
8896;DHT22;4484;48.928;10.066;2022-12-05T05:16:16;1.30;99.90
8896;DHT22;4484;48.928;10.066;2022-12-05T05:18:48;1.30;99.90
8896;DHT22;4484;48.928;10.066;2022-12-05T05:21:24;1.30;99.90
8896;DHT22;4484;48.928;10.066;2022-12-05T05:23:51;1.30;99.90
8896;DHT22;4484;48.928;10.066;2022-12-05T05:26:19;1.30;99.90
8896;DHT22;4484;48.928;10.066;2022-12-05T05:28:46;1.30;99.90
8896;DHT22;4484;48.928;10.066;2022-12-05T05:31:13;1.40;99.90
8896;DHT22;4484;48.928;10.066;2022-12-05T05:33:40;1.40;99.90
8896;DHT22;4484;48.928;10.066;2022-12-05T05:36:11;1.40;99.90
8896;DHT22;4484;48.928;10.066;2022-12-05T05:38:40;1.40;99.90
8896;DHT22;4484;48.928;10.066;2022-12-05T05:41:15;1.30;99.90
8896;DHT22;4484;48.928;10.066;2022-12-05T05:43:42;1.40;99.90
8896;DHT22;4484;48.928;10.066;2022-12-05T05:46:10;1.40;99.90
8896;DHT22;4484;48.928;10.066;2022-12-05T05:48:37;1.30;99.90
8896;DHT22;4484;48.928;10.066;2022-12-05T05:51:06;1.30;99.90
8896;DHT22;4484;48.928;10.066;2022-12-05T05:53:33;1.40;99.90
8896;DHT22;4484;48.928;10.066;2022-12-05T05:56:06;1.40;99.90
8896;DHT22;4484;48.928;10.066;2022-12-05T05:58:33;1.40;99.90
8896;DHT22;4484;48.928;10.066;2022-12-05T06:01:38;1.40;99.90
8896;DHT22;4484;48.928;10.066;2022-12-05T06:03:58;1.40;99.90
8896;DHT22;4484;48.928;10.066;2022-12-05T06:06:25;1.40;99.90
8896;DHT22;4484;48.928;10.066;2022-12-05T06:08:52;1.40;99.90
8896;DHT22;4484;48.928;10.066;2022-12-05T06:11:22;1.40;99.90
8896;DHT22;4484;48.928;10.066;2022-12-05T06:13:53;1.40;99.90
8896;DHT22;4484;48.928;10.066;2022-12-05T06:16:20;1.40;99.90
8896;DHT22;4484;48.928;10.066;2022-12-05T06:18:48;1.40;99.90
8896;DHT22;4484;48.928;10.066;2022-12-05T06:21:16;1.40;99.90
8896;DHT22;4484;48.928;10.066;2022-12-05T06:23:43;1.40;99.90
8896;DHT22;4484;48.928;10.066;2022-12-05T06:26:12;1.40;99.90
8896;DHT22;4484;48.928;10.066;2022-12-05T06:28:39;1.40;99.90
8896;DHT22;4484;48.928;10.066;2022-12-05T06:31:11;1.40;99.90
8896;DHT22;4484;48.928;10.066;2022-12-05T06:33:41;1.40;99.90
8896;DHT22;4484;48.928;10.066;2022-12-05T06:36:10;1.40;99.90
8896;DHT22;4484;48.928;10.066;2022-12-05T06:38:38;1.40;99.90
8896;DHT22;4484;48.928;10.066;2022-12-05T06:41:14;1.40;99.90
8896;DHT22;4484;48.928;10.066;2022-12-05T06:43:42;1.40;99.90
8896;DHT22;4484;48.928;10.066;2022-12-05T06:46:11;1.40;99.90
8896;DHT22;4484;48.928;10.066;2022-12-05T06:48:39;1.40;99.90
8896;DHT22;4484;48.928;10.066;2022-12-05T06:51:09;1.40;99.90
8896;DHT22;4484;48.928;10.066;2022-12-05T06:53:37;1.50;99.90
8896;DHT22;4484;48.928;10.066;2022-12-05T06:56:06;1.50;99.90
8896;DHT22;4484;48.928;10.066;2022-12-05T06:58:33;1.50;99.90
8896;DHT22;4484;48.928;10.066;2022-12-05T07:01:00;1.50;99.90
8896;DHT22;4484;48.928;10.066;2022-12-05T07:03:49;1.50;99.90
8896;DHT22;4484;48.928;10.066;2022-12-05T07:06:16;1.40;99.90
8896;DHT22;4484;48.928;10.066;2022-12-05T07:08:43;1.50;99.90
8896;DHT22;4484;48.928;10.066;2022-12-05T07:11:10;1.50;99.90
8896;DHT22;4484;48.928;10.066;2022-12-05T07:13:37;1.50;99.90
8896;DHT22;4484;48.928;10.066;2022-12-05T07:16:05;1.50;99.90
8896;DHT22;4484;48.928;10.066;2022-12-05T07:18:34;1.50;99.90
8896;DHT22;4484;48.928;10.066;2022-12-05T07:21:05;1.50;99.90
8896;DHT22;4484;48.928;10.066;2022-12-05T07:23:41;1.60;99.90
8896;DHT22;4484;48.928;10.066;2022-12-05T07:26:11;1.50;99.90
8896;DHT22;4484;48.928;10.066;2022-12-05T07:28:38;1.50;99.90
8896;DHT22;4484;48.928;10.066;2022-12-05T07:31:08;1.60;99.90
8896;DHT22;4484;48.928;10.066;2022-12-05T07:33:36;1.50;99.90
8896;DHT22;4484;48.928;10.066;2022-12-05T07:36:09;1.50;99.90
8896;DHT22;4484;48.928;10.066;2022-12-05T07:38:38;1.60;99.90
8896;DHT22;4484;48.928;10.066;2022-12-05T07:41:07;1.60;99.90
8896;DHT22;4484;48.928;10.066;2022-12-05T07:43:39;1.60;99.90
8896;DHT22;4484;48.928;10.066;2022-12-05T07:46:08;1.60;99.90
8896;DHT22;4484;48.928;10.066;2022-12-05T07:48:37;1.60;99.90
8896;DHT22;4484;48.928;10.066;2022-12-05T07:51:06;1.60;99.90
8896;DHT22;4484;48.928;10.066;2022-12-05T07:53:35;1.60;99.90
8896;DHT22;4484;48.928;10.066;2022-12-05T07:56:05;1.60;99.90
8896;DHT22;4484;48.928;10.066;2022-12-05T07:58:34;1.70;99.90
8896;DHT22;4484;48.928;10.066;2022-12-05T08:01:25;1.70;99.90
8896;DHT22;4484;48.928;10.066;2022-12-05T08:03:54;1.80;99.90
8896;DHT22;4484;48.928;10.066;2022-12-05T08:06:24;1.80;99.90
8896;DHT22;4484;48.928;10.066;2022-12-05T08:08:52;1.80;99.90
8896;DHT22;4484;48.928;10.066;2022-12-05T08:11:25;1.80;99.90
8896;DHT22;4484;48.928;10.066;2022-12-05T08:13:53;1.90;99.90
8896;DHT22;4484;48.928;10.066;2022-12-05T08:16:22;1.90;99.90
8896;DHT22;4484;48.928;10.066;2022-12-05T08:18:54;2.00;99.90
8896;DHT22;4484;48.928;10.066;2022-12-05T08:21:21;2.00;99.90
8896;DHT22;4484;48.928;10.066;2022-12-05T08:23:48;2.00;99.90
8896;DHT22;4484;48.928;10.066;2022-12-05T08:26:18;2.10;99.90
8896;DHT22;4484;48.928;10.066;2022-12-05T08:28:52;2.10;99.90
8896;DHT22;4484;48.928;10.066;2022-12-05T08:31:20;2.10;99.90
8896;DHT22;4484;48.928;10.066;2022-12-05T08:33:50;2.10;99.90
8896;DHT22;4484;48.928;10.066;2022-12-05T08:36:26;2.20;99.90
8896;DHT22;4484;48.928;10.066;2022-12-05T08:38:59;2.30;99.90
8896;DHT22;4484;48.928;10.066;2022-12-05T08:41:26;2.30;99.90
8896;DHT22;4484;48.928;10.066;2022-12-05T08:43:59;2.30;99.90
8896;DHT22;4484;48.928;10.066;2022-12-05T08:46:31;2.40;99.90
8896;DHT22;4484;48.928;10.066;2022-12-05T08:48:58;2.40;99.90
8896;DHT22;4484;48.928;10.066;2022-12-05T08:51:25;2.40;99.90
8896;DHT22;4484;48.928;10.066;2022-12-05T08:53:53;2.50;99.90
8896;DHT22;4484;48.928;10.066;2022-12-05T08:56:22;2.50;99.90
8896;DHT22;4484;48.928;10.066;2022-12-05T08:58:53;2.60;99.90
8896;DHT22;4484;48.928;10.066;2022-12-05T09:01:28;2.60;99.90
8896;DHT22;4484;48.928;10.066;2022-12-05T09:03:59;2.60;99.90
8896;DHT22;4484;48.928;10.066;2022-12-05T09:06:27;2.50;99.90
8896;DHT22;4484;48.928;10.066;2022-12-05T09:09:00;2.60;99.90
8896;DHT22;4484;48.928;10.066;2022-12-05T09:11:30;2.60;99.90
8896;DHT22;4484;48.928;10.066;2022-12-05T09:13:58;2.70;99.90
8896;DHT22;4484;48.928;10.066;2022-12-05T09:16:34;2.70;99.90
8896;DHT22;4484;48.928;10.066;2022-12-05T09:19:10;2.70;99.90
8896;DHT22;4484;48.928;10.066;2022-12-05T09:21:37;2.80;99.90
8896;DHT22;4484;48.928;10.066;2022-12-05T09:24:04;2.80;99.90
8896;DHT22;4484;48.928;10.066;2022-12-05T09:26:31;2.80;99.90
8896;DHT22;4484;48.928;10.066;2022-12-05T09:28:58;2.90;99.90
8896;DHT22;4484;48.928;10.066;2022-12-05T09:31:25;3.00;99.90
8896;DHT22;4484;48.928;10.066;2022-12-05T09:33:53;3.00;99.90
8896;DHT22;4484;48.928;10.066;2022-12-05T09:36:22;3.10;99.90
8896;DHT22;4484;48.928;10.066;2022-12-05T09:38:50;3.10;99.90
8896;DHT22;4484;48.928;10.066;2022-12-05T09:50:02;3.20;99.90
8896;DHT22;4484;48.928;10.066;2022-12-05T09:52:36;3.20;99.90
8896;DHT22;4484;48.928;10.066;2022-12-05T09:55:13;3.20;99.90
8896;DHT22;4484;48.928;10.066;2022-12-05T09:57:56;3.10;99.90
8896;DHT22;4484;48.928;10.066;2022-12-05T10:00:25;3.10;99.90
8896;DHT22;4484;48.928;10.066;2022-12-05T10:05:48;3.10;99.90
8896;DHT22;4484;48.928;10.066;2022-12-05T10:08:33;3.10;99.90
8896;DHT22;4484;48.928;10.066;2022-12-05T10:11:27;3.10;99.90
8896;DHT22;4484;48.928;10.066;2022-12-05T10:14:13;3.10;99.90
8896;DHT22;4484;48.928;10.066;2022-12-05T10:16:53;3.20;99.90
8896;DHT22;4484;48.928;10.066;2022-12-05T10:19:31;3.20;99.90
8896;DHT22;4484;48.928;10.066;2022-12-05T10:22:12;3.20;99.90
8896;DHT22;4484;48.928;10.066;2022-12-05T10:24:58;3.30;99.90
8896;DHT22;4484;48.928;10.066;2022-12-05T10:27:35;3.30;99.90
8896;DHT22;4484;48.928;10.066;2022-12-05T10:30:16;3.40;99.90
8896;DHT22;4484;48.928;10.066;2022-12-05T10:32:48;3.50;99.90
8896;DHT22;4484;48.928;10.066;2022-12-05T10:35:35;3.50;99.90
8896;DHT22;4484;48.928;10.066;2022-12-05T10:38:05;3.50;99.90
8896;DHT22;4484;48.928;10.066;2022-12-05T10:40:39;3.60;99.90
8896;DHT22;4484;48.928;10.066;2022-12-05T10:43:10;3.60;99.90
8896;DHT22;4484;48.928;10.066;2022-12-05T10:45:42;3.70;99.90
8896;DHT22;4484;48.928;10.066;2022-12-05T10:48:12;3.70;99.90
8896;DHT22;4484;48.928;10.066;2022-12-05T10:50:40;3.80;99.90
8896;DHT22;4484;48.928;10.066;2022-12-05T10:53:14;3.80;99.90
8896;DHT22;4484;48.928;10.066;2022-12-05T10:55:44;3.90;99.90
8896;DHT22;4484;48.928;10.066;2022-12-05T10:58:32;3.90;99.90
8896;DHT22;4484;48.928;10.066;2022-12-05T11:01:09;3.90;99.90
8896;DHT22;4484;48.928;10.066;2022-12-05T11:03:41;3.90;99.90
8896;DHT22;4484;48.928;10.066;2022-12-05T11:08:42;3.90;99.90
8896;DHT22;4484;48.928;10.066;2022-12-05T11:11:32;3.80;99.90
8896;DHT22;4484;48.928;10.066;2022-12-05T11:14:19;3.90;99.90
8896;DHT22;4484;48.928;10.066;2022-12-05T11:16:56;3.80;99.90
8896;DHT22;4484;48.928;10.066;2022-12-05T11:19:31;3.90;99.90
8896;DHT22;4484;48.928;10.066;2022-12-05T11:21:58;3.90;99.90
8896;DHT22;4484;48.928;10.066;2022-12-05T11:24:35;3.90;99.90
8896;DHT22;4484;48.928;10.066;2022-12-05T11:29:43;3.90;99.90
8896;DHT22;4484;48.928;10.066;2022-12-05T11:32:20;3.90;99.90
8896;DHT22;4484;48.928;10.066;2022-12-05T11:35:03;3.90;99.90
8896;DHT22;4484;48.928;10.066;2022-12-05T11:37:43;3.90;99.90
8896;DHT22;4484;48.928;10.066;2022-12-05T11:40:17;3.90;99.90
8896;DHT22;4484;48.928;10.066;2022-12-05T11:43:06;3.80;99.90
8896;DHT22;4484;48.928;10.066;2022-12-05T11:45:44;3.80;99.90
8896;DHT22;4484;48.928;10.066;2022-12-05T11:56:51;3.80;99.90
8896;DHT22;4484;48.928;10.066;2022-12-05T12:02:21;3.80;99.90
8896;DHT22;4484;48.928;10.066;2022-12-05T12:16:12;3.80;99.90
8896;DHT22;4484;48.928;10.066;2022-12-05T12:19:00;3.80;99.90
8896;DHT22;4484;48.928;10.066;2022-12-05T12:30:23;3.90;99.90
8896;DHT22;4484;48.928;10.066;2022-12-05T12:33:10;3.90;99.90
8896;DHT22;4484;48.928;10.066;2022-12-05T12:40:52;3.90;99.90
8896;DHT22;4484;48.928;10.066;2022-12-05T12:49:23;3.90;99.90
8896;DHT22;4484;48.928;10.066;2022-12-05T12:52:07;3.90;99.90
8896;DHT22;4484;48.928;10.066;2022-12-05T12:57:54;4.00;99.90
8896;DHT22;4484;48.928;10.066;2022-12-05T13:08:12;4.00;99.90
8896;DHT22;4484;48.928;10.066;2022-12-05T13:10:44;4.00;99.90
8896;DHT22;4484;48.928;10.066;2022-12-05T13:13:57;4.00;99.90
8896;DHT22;4484;48.928;10.066;2022-12-05T13:16:06;4.00;99.90
8896;DHT22;4484;48.928;10.066;2022-12-05T13:18:34;3.90;99.90
8896;DHT22;4484;48.928;10.066;2022-12-05T13:21:06;4.00;99.90
8896;DHT22;4484;48.928;10.066;2022-12-05T13:23:44;3.90;99.90
8896;DHT22;4484;48.928;10.066;2022-12-05T13:26:12;3.90;99.90
8896;DHT22;4484;48.928;10.066;2022-12-05T13:28:52;3.90;99.90
8896;DHT22;4484;48.928;10.066;2022-12-05T13:34:00;3.90;99.90
8896;DHT22;4484;48.928;10.066;2022-12-05T13:36:27;3.90;99.90
8896;DHT22;4484;48.928;10.066;2022-12-05T13:39:21;3.90;99.90
8896;DHT22;4484;48.928;10.066;2022-12-05T13:42:23;3.90;99.90
8896;DHT22;4484;48.928;10.066;2022-12-05T13:44:57;4.00;99.90
8896;DHT22;4484;48.928;10.066;2022-12-05T13:50:08;4.10;99.90
8896;DHT22;4484;48.928;10.066;2022-12-05T13:52:57;4.20;99.90
8896;DHT22;4484;48.928;10.066;2022-12-05T13:55:26;4.20;99.90
8896;DHT22;4484;48.928;10.066;2022-12-05T14:00:44;4.30;99.90
8896;DHT22;4484;48.928;10.066;2022-12-05T14:03:53;4.40;99.90
8896;DHT22;4484;48.928;10.066;2022-12-05T14:06:05;4.50;99.90
8896;DHT22;4484;48.928;10.066;2022-12-05T14:11:08;4.50;99.90
8896;DHT22;4484;48.928;10.066;2022-12-05T14:13:40;4.50;99.90
8896;DHT22;4484;48.928;10.066;2022-12-05T14:21:41;4.40;99.90
8896;DHT22;4484;48.928;10.066;2022-12-05T14:24:41;4.40;99.90
8896;DHT22;4484;48.928;10.066;2022-12-05T14:27:40;4.40;99.90
8896;DHT22;4484;48.928;10.066;2022-12-05T14:30:19;4.40;99.90
8896;DHT22;4484;48.928;10.066;2022-12-05T14:32:48;4.40;99.90
8896;DHT22;4484;48.928;10.066;2022-12-05T14:35:31;4.40;99.90
8896;DHT22;4484;48.928;10.066;2022-12-05T14:38:07;4.40;99.90
8896;DHT22;4484;48.928;10.066;2022-12-05T14:40:45;4.40;99.90
8896;DHT22;4484;48.928;10.066;2022-12-05T14:43:30;4.40;99.90
8896;DHT22;4484;48.928;10.066;2022-12-05T14:48:34;4.30;99.90
8896;DHT22;4484;48.928;10.066;2022-12-05T14:51:43;4.30;99.90
8896;DHT22;4484;48.928;10.066;2022-12-05T14:54:14;4.20;99.90
8896;DHT22;4484;48.928;10.066;2022-12-05T14:56:43;4.20;99.90
8896;DHT22;4484;48.928;10.066;2022-12-05T14:59:31;4.20;99.90
8896;DHT22;4484;48.928;10.066;2022-12-05T15:02:01;4.20;99.90
8896;DHT22;4484;48.928;10.066;2022-12-05T15:04:50;4.20;99.90
8896;DHT22;4484;48.928;10.066;2022-12-05T15:07:21;4.10;99.90
8896;DHT22;4484;48.928;10.066;2022-12-05T15:10:15;4.10;99.90
8896;DHT22;4484;48.928;10.066;2022-12-05T15:21:09;4.00;99.90
8896;DHT22;4484;48.928;10.066;2022-12-05T15:23:46;4.00;99.90
8896;DHT22;4484;48.928;10.066;2022-12-05T15:37:48;3.70;99.90
8896;DHT22;4484;48.928;10.066;2022-12-05T15:40:20;3.70;99.90
8896;DHT22;4484;48.928;10.066;2022-12-05T15:42:49;3.70;99.90
8896;DHT22;4484;48.928;10.066;2022-12-05T15:45:19;3.70;99.90
8896;DHT22;4484;48.928;10.066;2022-12-05T15:50:39;3.70;99.90
8896;DHT22;4484;48.928;10.066;2022-12-05T15:53:16;3.70;99.90
8896;DHT22;4484;48.928;10.066;2022-12-05T16:00:51;3.60;99.90
8896;DHT22;4484;48.928;10.066;2022-12-05T16:03:33;3.60;99.90
8896;DHT22;4484;48.928;10.066;2022-12-05T16:06:12;3.60;99.90
8896;DHT22;4484;48.928;10.066;2022-12-05T16:08:46;3.60;99.90
8896;DHT22;4484;48.928;10.066;2022-12-05T16:11:13;3.50;99.90
8896;DHT22;4484;48.928;10.066;2022-12-05T16:13:47;3.60;99.90
8896;DHT22;4484;48.928;10.066;2022-12-05T16:16:24;3.50;99.90
8896;DHT22;4484;48.928;10.066;2022-12-05T16:18:55;3.50;99.90
8896;DHT22;4484;48.928;10.066;2022-12-05T16:21:37;3.50;99.90
8896;DHT22;4484;48.928;10.066;2022-12-05T16:24:19;3.50;99.90
8896;DHT22;4484;48.928;10.066;2022-12-05T16:27:03;3.50;99.90
8896;DHT22;4484;48.928;10.066;2022-12-05T16:29:33;3.50;99.90
8896;DHT22;4484;48.928;10.066;2022-12-05T16:32:03;3.50;99.90
8896;DHT22;4484;48.928;10.066;2022-12-05T16:34:32;3.50;99.90
8896;DHT22;4484;48.928;10.066;2022-12-05T16:36:59;3.50;99.90
8896;DHT22;4484;48.928;10.066;2022-12-05T16:39:27;3.40;99.90
8896;DHT22;4484;48.928;10.066;2022-12-05T16:41:54;3.40;99.90
8896;DHT22;4484;48.928;10.066;2022-12-05T16:47:52;3.40;99.90
8896;DHT22;4484;48.928;10.066;2022-12-05T16:55:39;3.30;99.90
8896;DHT22;4484;48.928;10.066;2022-12-05T16:58:10;3.30;99.90
8896;DHT22;4484;48.928;10.066;2022-12-05T17:00:39;3.20;99.90
8896;DHT22;4484;48.928;10.066;2022-12-05T17:03:11;3.20;99.90
8896;DHT22;4484;48.928;10.066;2022-12-05T17:05:57;3.20;99.90
8896;DHT22;4484;48.928;10.066;2022-12-05T17:08:25;3.20;99.90
8896;DHT22;4484;48.928;10.066;2022-12-05T17:10:52;3.20;99.90
8896;DHT22;4484;48.928;10.066;2022-12-05T17:13:19;3.20;99.90
8896;DHT22;4484;48.928;10.066;2022-12-05T17:15:46;3.20;99.90
8896;DHT22;4484;48.928;10.066;2022-12-05T17:18:19;3.10;99.90
8896;DHT22;4484;48.928;10.066;2022-12-05T17:20:53;3.20;99.90
8896;DHT22;4484;48.928;10.066;2022-12-05T17:23:20;3.10;99.90
8896;DHT22;4484;48.928;10.066;2022-12-05T17:25:52;3.10;99.90
8896;DHT22;4484;48.928;10.066;2022-12-05T17:28:20;3.10;99.90
8896;DHT22;4484;48.928;10.066;2022-12-05T17:30:48;3.10;99.90
8896;DHT22;4484;48.928;10.066;2022-12-05T17:33:17;3.00;99.90
8896;DHT22;4484;48.928;10.066;2022-12-05T17:35:44;3.00;99.90
8896;DHT22;4484;48.928;10.066;2022-12-05T17:38:11;3.00;99.90
8896;DHT22;4484;48.928;10.066;2022-12-05T17:40:38;2.90;99.90
8896;DHT22;4484;48.928;10.066;2022-12-05T17:43:06;2.90;99.90
8896;DHT22;4484;48.928;10.066;2022-12-05T17:45:33;2.80;99.90
8896;DHT22;4484;48.928;10.066;2022-12-05T17:48:00;2.70;99.90
8896;DHT22;4484;48.928;10.066;2022-12-05T17:50:26;2.70;99.90
8896;DHT22;4484;48.928;10.066;2022-12-05T17:52:56;2.60;99.90
8896;DHT22;4484;48.928;10.066;2022-12-05T17:55:28;2.60;99.90
8896;DHT22;4484;48.928;10.066;2022-12-05T17:57:55;2.50;99.90
8896;DHT22;4484;48.928;10.066;2022-12-05T18:00:23;2.50;99.90
8896;DHT22;4484;48.928;10.066;2022-12-05T18:02:50;2.40;99.90
8896;DHT22;4484;48.928;10.066;2022-12-05T18:05:18;2.40;99.90
8896;DHT22;4484;48.928;10.066;2022-12-05T18:07:45;2.30;99.90
8896;DHT22;4484;48.928;10.066;2022-12-05T18:10:18;2.30;99.90
8896;DHT22;4484;48.928;10.066;2022-12-05T18:12:46;2.40;99.90
8896;DHT22;4484;48.928;10.066;2022-12-05T18:15:14;2.40;99.90
8896;DHT22;4484;48.928;10.066;2022-12-05T18:17:41;2.30;99.90
8896;DHT22;4484;48.928;10.066;2022-12-05T18:20:11;2.30;99.90
8896;DHT22;4484;48.928;10.066;2022-12-05T18:22:38;2.40;99.90
8896;DHT22;4484;48.928;10.066;2022-12-05T18:25:06;2.40;99.90
8896;DHT22;4484;48.928;10.066;2022-12-05T18:27:34;2.40;99.90
8896;DHT22;4484;48.928;10.066;2022-12-05T18:30:03;2.50;99.90
8896;DHT22;4484;48.928;10.066;2022-12-05T18:32:30;2.50;99.90
8896;DHT22;4484;48.928;10.066;2022-12-05T18:34:57;2.50;99.90
8896;DHT22;4484;48.928;10.066;2022-12-05T18:37:26;2.50;99.90
8896;DHT22;4484;48.928;10.066;2022-12-05T18:39:54;2.50;99.90
8896;DHT22;4484;48.928;10.066;2022-12-05T18:42:22;2.60;99.90
8896;DHT22;4484;48.928;10.066;2022-12-05T18:44:49;2.60;99.90
8896;DHT22;4484;48.928;10.066;2022-12-05T18:47:16;2.60;99.90
8896;DHT22;4484;48.928;10.066;2022-12-05T18:49:43;2.60;99.90
8896;DHT22;4484;48.928;10.066;2022-12-05T18:52:09;2.60;99.90
8896;DHT22;4484;48.928;10.066;2022-12-05T18:54:36;2.60;99.90
8896;DHT22;4484;48.928;10.066;2022-12-05T18:57:03;2.60;99.90
8896;DHT22;4484;48.928;10.066;2022-12-05T18:59:30;2.60;99.90
8896;DHT22;4484;48.928;10.066;2022-12-05T19:01:57;2.60;99.90
8896;DHT22;4484;48.928;10.066;2022-12-05T19:04:27;2.50;99.90
8896;DHT22;4484;48.928;10.066;2022-12-05T19:06:59;2.50;99.90
8896;DHT22;4484;48.928;10.066;2022-12-05T19:09:29;2.50;99.90
8896;DHT22;4484;48.928;10.066;2022-12-05T19:11:57;2.40;99.90
8896;DHT22;4484;48.928;10.066;2022-12-05T19:14:27;2.40;99.90
8896;DHT22;4484;48.928;10.066;2022-12-05T19:16:55;2.40;99.90
8896;DHT22;4484;48.928;10.066;2022-12-05T19:19:26;2.40;99.90
8896;DHT22;4484;48.928;10.066;2022-12-05T19:21:53;2.40;99.90
8896;DHT22;4484;48.928;10.066;2022-12-05T19:24:22;2.40;99.90
8896;DHT22;4484;48.928;10.066;2022-12-05T19:26:49;2.50;99.90